Time;durP1;ratioP1;P1;durP2;ratioP2;P2;SDS_P1;SDS_P2;PMS_P1;PMS_P2;Temp;Humidity;BMP_temperature;BMP_pressure;BME280_temperature;BME280_humidity;BME280_pressure;Samples;Min_cycle;Max_cycle;Signal;HPM_P1;HPM_P2
2023/10/12 00:00:41;;;;;;;9.30;4.20;;;15.50;99.90;;;;;;4962825;28;20215;-71
2023/10/12 00:03:07;;;;;;;18.03;4.73;;;15.50;99.90;;;;;;4954561;28;20222;-70
2023/10/12 00:05:36;;;;;;;14.17;4.70;;;15.50;99.90;;;;;;4954260;28;20284;-70
2023/10/12 00:08:10;;;;;;;12.07;4.57;;;15.40;99.90;;;;;;4962313;28;20546;-70
2023/10/12 00:10:42;;;;;;;17.20;4.87;;;15.40;99.90;;;;;;4953946;28;20230;-70
2023/10/12 00:13:11;;;;;;;10.07;4.33;;;15.40;99.90;;;;;;4960948;28;20297;-69
2023/10/12 00:15:46;;;;;;;8.97;4.10;;;15.30;99.90;;;;;;4961720;28;20194;-70
2023/10/12 00:18:14;;;;;;;17.57;4.57;;;15.30;99.90;;;;;;4959880;28;20664;-70
2023/10/12 00:20:40;;;;;;;9.97;4.33;;;15.20;99.90;;;;;;4962345;28;20217;-71
2023/10/12 00:23:10;;;;;;;11.03;4.13;;;15.10;99.90;;;;;;4967151;28;20285;-70
2023/10/12 00:26:16;;;;;;;13.07;4.73;;;15.00;99.90;;;;;;4963129;28;20205;-71
2023/10/12 00:28:40;;;;;;;10.77;4.63;;;15.00;99.90;;;;;;4958765;28;20200;-69
2023/10/12 00:31:12;;;;;;;14.20;4.53;;;15.00;99.90;;;;;;4953770;28;20222;-70
2023/10/12 00:33:38;;;;;;;14.37;4.53;;;15.00;99.90;;;;;;4961864;28;20236;-70
2023/10/12 00:36:04;;;;;;;12.47;4.33;;;14.90;99.90;;;;;;4962319;28;20183;-70
2023/10/12 00:38:30;;;;;;;12.43;4.83;;;14.80;99.90;;;;;;4970135;28;20197;-70
2023/10/12 00:41:03;;;;;;;11.77;5.00;;;14.70;99.90;;;;;;4959752;28;20237;-70
2023/10/12 00:43:38;;;;;;;13.17;4.30;;;14.70;99.90;;;;;;4955039;28;20801;-70
2023/10/12 00:46:16;;;;;;;14.73;4.87;;;14.60;99.90;;;;;;4972962;28;20299;-71
2023/10/12 00:48:47;;;;;;;12.10;4.80;;;14.60;99.90;;;;;;4953910;28;20186;-70
2023/10/12 00:51:16;;;;;;;15.80;4.87;;;14.50;99.90;;;;;;4953277;28;20218;-70
2023/10/12 00:53:55;;;;;;;13.60;4.33;;;14.50;99.90;;;;;;4953419;28;20218;-70
2023/10/12 00:56:22;;;;;;;15.37;5.03;;;14.40;99.90;;;;;;4953401;28;20648;-70
2023/10/12 00:58:50;;;;;;;11.93;5.43;;;14.40;99.90;;;;;;4953574;28;20179;-70
2023/10/12 01:01:18;;;;;;;9.03;4.47;;;14.30;99.90;;;;;;4953189;28;20642;-70
2023/10/12 01:03:45;;;;;;;12.40;4.27;;;14.30;99.90;;;;;;4952022;28;20230;-70
2023/10/12 01:08:46;;;;;;;12.23;4.87;;;14.20;99.90;;;;;;4963550;28;20265;-70
2023/10/12 01:11:20;;;;;;;9.47;4.50;;;14.20;99.90;;;;;;4957314;28;20677;-71
2023/10/12 01:14:03;;;;;;;12.23;4.57;;;14.20;99.90;;;;;;4956808;28;20186;-71
2023/10/12 01:19:31;;;;;;;16.60;4.93;;;14.10;99.90;;;;;;4956928;28;20277;-70
2023/10/12 01:22:07;;;;;;;10.13;4.23;;;14.10;99.90;;;;;;4951691;28;20257;-70
2023/10/12 01:24:33;;;;;;;17.67;4.73;;;14.10;99.90;;;;;;4952908;28;20209;-70
2023/10/12 01:26:59;;;;;;;16.90;4.50;;;14.10;99.90;;;;;;4952991;28;20580;-70
2023/10/12 01:29:25;;;;;;;13.13;4.63;;;14.10;99.90;;;;;;4952560;28;20182;-70
2023/10/12 01:32:40;;;;;;;13.80;4.60;;;14.10;99.90;;;;;;4952907;28;20768;-71
2023/10/12 01:34:49;;;;;;;13.97;5.20;;;14.10;99.90;;;;;;4956780;28;20206;-69
2023/10/12 01:37:22;;;;;;;11.57;4.53;;;14.10;99.90;;;;;;4960108;28;20232;-71
2023/10/12 01:40:10;;;;;;;10.17;4.47;;;14.00;99.90;;;;;;4960036;28;20685;-70
2023/10/12 01:42:49;;;;;;;13.53;4.60;;;14.10;99.90;;;;;;4954972;28;20194;-70
2023/10/12 01:45:41;;;;;;;11.80;4.27;;;14.10;99.90;;;;;;4955335;28;20273;-70
2023/10/12 01:48:06;;;;;;;14.17;4.83;;;14.10;99.90;;;;;;4963847;28;20213;-70
2023/10/12 01:50:38;;;;;;;13.73;4.43;;;14.10;99.90;;;;;;4969332;28;20296;-71
2023/10/12 01:53:33;;;;;;;16.17;4.83;;;14.10;99.90;;;;;;4966482;28;20205;-70
2023/10/12 01:56:01;;;;;;;11.43;4.97;;;14.20;99.90;;;;;;4950852;28;20677;-70
2023/10/12 01:58:32;;;;;;;13.73;4.77;;;14.20;99.90;;;;;;4963733;28;20190;-70
2023/10/12 02:01:07;;;;;;;14.70;5.20;;;14.20;99.90;;;;;;4963519;28;20197;-70
2023/10/12 02:03:42;;;;;;;14.50;5.00;;;14.30;99.90;;;;;;4963595;28;20672;-71
2023/10/12 02:06:13;;;;;;;11.00;5.07;;;14.30;99.90;;;;;;4965478;28;20269;-70
2023/10/12 02:08:45;;;;;;;14.93;5.20;;;14.20;99.90;;;;;;4961579;28;20182;-71
2023/10/12 02:11:26;;;;;;;17.10;5.10;;;14.30;99.90;;;;;;4963571;28;20217;-70
2023/10/12 02:14:01;;;;;;;14.30;4.53;;;14.30;99.90;;;;;;4963620;28;20178;-70
2023/10/12 02:16:37;;;;;;;16.93;4.70;;;14.30;99.90;;;;;;4963566;28;20233;-70
2023/10/12 02:19:04;;;;;;;11.47;4.83;;;14.40;99.90;;;;;;4963533;28;20548;-70
2023/10/12 02:21:33;;;;;;;11.30;5.27;;;14.40;99.90;;;;;;4971290;28;20584;-70
2023/10/12 02:26:35;;;;;;;18.43;5.10;;;14.50;99.90;;;;;;4961832;28;20197;-70
2023/10/12 02:29:11;;;;;;;14.33;5.40;;;14.50;99.90;;;;;;4960219;28;20190;-69
2023/10/12 02:31:58;;;;;;;19.70;5.73;;;14.60;99.90;;;;;;4951962;28;20214;-70
2023/10/12 02:34:31;;;;;;;14.37;5.73;;;14.60;99.90;;;;;;4967977;28;20265;-69
2023/10/12 02:39:41;;;;;;;14.53;5.00;;;14.60;99.90;;;;;;4961625;28;20556;-70
2023/10/12 02:42:17;;;;;;;14.27;4.97;;;14.60;99.90;;;;;;4965227;28;20559;-69
2023/10/12 02:47:23;;;;;;;18.10;5.17;;;14.70;99.90;;;;;;4964459;28;20266;-70
2023/10/12 02:50:15;;;;;;;13.17;5.33;;;14.70;99.90;;;;;;4947978;28;20186;-70
2023/10/12 02:52:44;;;;;;;15.10;4.90;;;14.70;99.90;;;;;;4971506;28;20605;-70
2023/10/12 02:55:33;;;;;;;14.43;5.33;;;14.80;99.90;;;;;;4971332;28;20693;-71
2023/10/12 02:58:07;;;;;;;16.57;5.10;;;14.80;99.90;;;;;;4965138;28;20272;-70
2023/10/12 03:00:44;;;;;;;17.30;5.30;;;14.80;99.90;;;;;;4970770;28;20211;-70
2023/10/12 03:03:24;;;;;;;14.73;5.60;;;14.80;99.90;;;;;;4965917;28;20194;-70
2023/10/12 03:05:52;;;;;;;17.37;5.57;;;14.70;99.90;;;;;;4963204;28;20212;-70
2023/10/12 03:08:20;;;;;;;16.53;5.37;;;14.80;99.90;;;;;;4971350;28;20184;-71
2023/10/12 03:11:32;;;;;;;22.53;5.53;;;14.80;99.90;;;;;;4971079;28;20206;-69
2023/10/12 03:13:39;;;;;;;15.50;5.77;;;14.80;99.90;;;;;;4961162;28;20201;-70
2023/10/12 03:16:12;;;;;;;13.80;5.70;;;14.80;99.90;;;;;;4968962;28;20183;-70
2023/10/12 03:18:38;;;;;;;15.70;6.10;;;14.80;99.90;;;;;;4955345;28;20285;-70
2023/10/12 03:21:11;;;;;;;25.93;5.50;;;14.80;99.90;;;;;;4955150;28;20707;-70
2023/10/12 03:23:38;;;;;;;11.80;5.63;;;14.80;99.90;;;;;;4955221;28;20592;-70
2023/10/12 03:26:18;;;;;;;12.03;5.63;;;14.80;99.90;;;;;;4955357;28;20297;-70
2023/10/12 03:28:46;;;;;;;19.47;5.87;;;14.80;99.90;;;;;;4955184;28;20178;-70
2023/10/12 03:31:21;;;;;;;12.50;5.43;;;14.80;99.90;;;;;;4961773;28;20214;-70
2023/10/12 03:33:53;;;;;;;15.33;5.50;;;14.80;99.90;;;;;;4963271;28;20189;-70
2023/10/12 03:52:39;;;;;;;14.23;3.90;;;15.40;99.90;;;;;;4944312;28;20213;-70
2023/10/12 03:58:00;;;;;;;8.30;3.67;;;15.50;99.90;;;;;;4962537;28;20610;-70
2023/10/12 04:00:48;;;;;;;11.87;4.23;;;15.50;99.90;;;;;;4954695;28;20210;-72
2023/10/12 04:03:18;;;;;;;13.80;3.87;;;15.50;99.90;;;;;;4965954;28;20194;-71
2023/10/12 04:05:51;;;;;;;14.53;4.77;;;15.40;99.90;;;;;;4973659;28;20205;-71
2023/10/12 04:08:39;;;;;;;15.90;4.13;;;15.40;99.90;;;;;;4973837;28;20984;-71
2023/10/12 04:11:45;;;;;;;14.97;4.43;;;15.40;99.90;;;;;;4953608;28;20599;-71
2023/10/12 04:14:20;;;;;;;12.80;4.20;;;15.40;99.90;;;;;;4954054;28;20245;-71
2023/10/12 04:16:47;;;;;;;17.03;4.70;;;15.40;99.90;;;;;;4954221;28;20213;-70
2023/10/12 04:19:22;;;;;;;11.47;4.60;;;15.40;99.90;;;;;;4960857;28;20653;-71
2023/10/12 04:22:42;;;;;;;11.80;4.30;;;15.40;99.90;;;;;;4954181;28;20210;-71
2023/10/12 04:24:45;;;;;;;10.20;4.27;;;15.50;99.90;;;;;;4950023;28;20278;-70
2023/10/12 04:27:24;;;;;;;11.87;4.13;;;15.40;99.90;;;;;;4954261;28;21067;-70
2023/10/12 04:29:58;;;;;;;10.17;4.33;;;15.40;99.90;;;;;;4957494;28;20252;-70
2023/10/12 04:32:51;;;;;;;11.73;4.20;;;15.30;99.90;;;;;;4957039;28;20270;-70
2023/10/12 04:43:52;;;;;;;10.30;4.30;;;15.10;99.90;;;;;;4965249;28;20248;-71
2023/10/12 04:48:51;;;;;;;11.03;4.73;;;15.00;99.90;;;;;;4961458;28;20573;-69
2023/10/12 04:51:19;;;;;;;10.67;4.50;;;15.00;99.90;;;;;;4960520;28;20790;-70
2023/10/12 04:53:58;;;;;;;12.73;4.50;;;14.90;99.90;;;;;;4964684;28;20233;-70
2023/10/12 04:56:26;;;;;;;13.10;5.10;;;14.90;99.90;;;;;;4964762;28;20183;-70
2023/10/12 04:58:59;;;;;;;14.13;5.53;;;14.90;99.90;;;;;;4964813;28;20193;-70
2023/10/12 05:01:37;;;;;;;12.33;4.87;;;14.90;99.90;;;;;;4964359;28;20264;-70
2023/10/12 05:04:19;;;;;;;9.50;4.40;;;14.80;99.90;;;;;;4964810;28;20188;-70
2023/10/12 05:07:12;;;;;;;10.57;4.80;;;14.80;99.90;;;;;;4956535;28;20264;-70
2023/10/12 05:09:33;;;;;;;14.03;5.00;;;14.80;99.90;;;;;;4962390;28;20193;-70
2023/10/12 05:11:58;;;;;;;14.60;4.70;;;14.70;99.90;;;;;;4966152;28;20586;-70
2023/10/12 05:14:25;;;;;;;13.50;4.83;;;14.70;99.90;;;;;;4960226;28;20186;-70
2023/10/12 05:16:51;;;;;;;14.03;4.50;;;14.60;99.90;;;;;;4960691;28;20285;-70
2023/10/12 05:19:17;;;;;;;13.37;5.40;;;14.60;99.90;;;;;;4968169;28;20196;-71
2023/10/12 05:21:43;;;;;;;15.07;5.30;;;14.50;99.90;;;;;;4961363;28;20215;-71
2023/10/12 05:24:09;;;;;;;12.30;5.23;;;14.40;99.90;;;;;;4958999;28;20186;-71
2023/10/12 05:26:36;;;;;;;11.20;5.57;;;14.40;99.90;;;;;;4962145;28;20193;-70
2023/10/12 05:29:26;;;;;;;10.37;4.73;;;14.40;99.90;;;;;;4952903;28;20748;-71
2023/10/12 05:32:05;;;;;;;12.40;4.67;;;14.40;99.90;;;;;;4972057;28;20898;-70
2023/10/12 05:34:34;;;;;;;9.17;5.20;;;14.30;99.90;;;;;;4954905;28;20330;-70
2023/10/12 05:37:26;;;;;;;10.67;4.80;;;14.30;99.90;;;;;;4957808;28;20186;-70
2023/10/12 05:39:51;;;;;;;11.53;5.20;;;14.40;99.90;;;;;;4960237;28;20193;-70
2023/10/12 05:42:20;;;;;;;13.20;5.10;;;14.30;99.90;;;;;;4959559;28;20210;-70
2023/10/12 05:44:53;;;;;;;9.70;5.00;;;14.40;99.90;;;;;;4962271;28;20205;-71
2023/10/12 05:47:31;;;;;;;16.13;5.30;;;14.40;99.90;;;;;;4963892;28;20609;-70
2023/10/12 05:49:58;;;;;;;12.80;5.27;;;14.40;99.90;;;;;;4958238;28;20747;-71
2023/10/12 05:52:24;;;;;;;10.60;5.20;;;14.40;99.90;;;;;;4963663;28;20614;-71
2023/10/12 05:54:57;;;;;;;13.20;6.07;;;14.40;99.90;;;;;;4952643;28;20191;-71
2023/10/12 05:57:25;;;;;;;17.57;5.30;;;14.40;99.90;;;;;;4968591;28;20216;-70
2023/10/12 05:59:51;;;;;;;12.00;5.60;;;14.30;99.90;;;;;;4962254;28;20189;-71
2023/10/12 06:02:22;;;;;;;10.47;5.17;;;14.40;99.90;;;;;;4964677;28;20205;-71
2023/10/12 06:04:48;;;;;;;12.13;4.93;;;14.40;99.90;;;;;;4963744;28;20202;-71
2023/10/12 06:07:14;;;;;;;16.67;5.60;;;14.40;99.90;;;;;;4956123;28;20186;-71
2023/10/12 06:09:40;;;;;;;17.20;7.87;;;14.40;99.90;;;;;;4961295;28;20562;-70
2023/10/12 06:12:07;;;;;;;17.30;5.50;;;14.50;99.90;;;;;;4971276;28;20189;-70
2023/10/12 06:14:38;;;;;;;14.37;5.97;;;14.50;99.90;;;;;;4971274;28;20177;-71
2023/10/12 06:17:07;;;;;;;17.70;5.60;;;14.50;99.90;;;;;;4957832;28;20178;-70
2023/10/12 06:19:36;;;;;;;22.07;12.83;;;14.50;99.90;;;;;;4967338;28;20186;-70
2023/10/12 06:22:23;;;;;;;14.40;5.93;;;14.50;99.90;;;;;;4951527;28;20206;-70
2023/10/12 06:24:52;;;;;;;14.10;5.47;;;14.60;99.90;;;;;;4951721;28;20218;-71
2023/10/12 06:29:51;;;;;;;15.67;5.10;;;14.60;99.90;;;;;;4967578;28;20209;-71
2023/10/12 06:32:18;;;;;;;20.50;6.40;;;14.60;99.90;;;;;;4966953;28;20186;-68
2023/10/12 06:34:45;;;;;;;18.63;7.20;;;14.60;99.90;;;;;;4962811;28;20280;-70
2023/10/12 06:42:39;;;;;;;18.50;6.20;;;14.60;99.90;;;;;;4963474;28;20615;-70
2023/10/12 06:45:07;;;;;;;15.20;5.97;;;14.70;99.90;;;;;;4968864;28;20209;-70
2023/10/12 06:47:42;;;;;;;14.00;5.70;;;14.70;99.90;;;;;;4973166;28;20200;-70
2023/10/12 06:50:15;;;;;;;9.23;5.17;;;14.70;99.90;;;;;;4974442;28;20279;-70
2023/10/12 06:52:42;;;;;;;14.43;5.97;;;14.80;99.90;;;;;;4973417;28;20194;-69
2023/10/12 06:55:08;;;;;;;14.43;5.73;;;14.80;99.90;;;;;;4974483;28;20186;-69
2023/10/12 06:57:43;;;;;;;15.93;6.23;;;14.90;99.90;;;;;;4966609;28;20656;-69
2023/10/12 07:02:35;;;;;;;16.97;7.87;;;14.90;99.90;;;;;;4963067;28;20190;-69
2023/10/12 07:05:04;;;;;;;14.67;6.37;;;14.90;99.90;;;;;;4967826;28;20217;-69
2023/10/12 07:07:41;;;;;;;15.60;6.00;;;14.90;99.90;;;;;;4973235;28;20184;-71
2023/10/12 07:12:42;;;;;;;16.00;6.53;;;14.90;99.90;;;;;;4955255;28;20597;-70
2023/10/12 07:15:22;;;;;;;19.00;6.97;;;14.80;99.90;;;;;;4962936;28;20655;-71
2023/10/12 07:17:52;;;;;;;15.07;6.40;;;14.80;99.90;;;;;;4955068;28;20586;-70
2023/10/12 07:23:05;;;;;;;16.43;6.07;;;14.90;99.90;;;;;;4947823;28;20664;-70
2023/10/12 07:25:35;;;;;;;15.37;6.27;;;14.90;99.90;;;;;;4963476;28;20260;-70
2023/10/12 07:28:01;;;;;;;10.40;5.70;;;15.00;99.90;;;;;;4961077;28;20186;-70
2023/10/12 07:30:33;;;;;;;14.63;6.50;;;15.00;99.90;;;;;;4962693;28;20217;-70
2023/10/12 07:33:07;;;;;;;20.87;6.70;;;15.10;99.90;;;;;;4959160;28;20182;-70
2023/10/12 07:35:38;;;;;;;13.40;5.73;;;15.10;99.90;;;;;;4973648;28;20201;-70
2023/10/12 07:43:23;;;;;;;12.63;6.40;;;15.20;99.90;;;;;;4972638;28;20711;-70
2023/10/12 07:45:49;;;;;;;15.83;6.57;;;15.30;99.90;;;;;;4973325;28;20209;-70
2023/10/12 07:48:39;;;;;;;18.67;6.20;;;15.30;99.90;;;;;;4966382;28;20187;-70
2023/10/12 07:51:16;;;;;;;12.87;6.57;;;15.40;99.90;;;;;;4967788;28;20226;-70
2023/10/12 07:53:51;;;;;;;14.40;6.50;;;15.40;99.90;;;;;;4962148;28;20182;-70
2023/10/12 07:56:17;;;;;;;13.20;6.83;;;15.30;99.90;;;;;;4969113;28;20312;-70
2023/10/12 07:58:59;;;;;;;16.40;6.13;;;15.40;99.90;;;;;;4973186;28;20189;-71
2023/10/12 08:03:52;;;;;;;15.93;7.97;;;15.50;99.90;;;;;;4973520;28;20194;-67
2023/10/12 08:09:05;;;;;;;29.17;16.43;;;15.70;99.90;;;;;;4953859;28;20720;-70
2023/10/12 08:11:34;;;;;;;19.60;7.63;;;15.70;99.90;;;;;;4954193;28;20228;-70
2023/10/12 08:14:19;;;;;;;18.10;6.17;;;15.70;99.90;;;;;;4960335;28;20218;-70
2023/10/12 08:17:00;;;;;;;15.00;6.23;;;15.80;99.90;;;;;;4953764;28;20229;-71
2023/10/12 08:22:09;;;;;;;15.70;6.73;;;15.90;99.90;;;;;;5243533;23;20635;-70
2023/10/12 08:24:36;;;;;;;16.13;6.27;;;15.90;99.90;;;;;;4975699;28;20595;-71
2023/10/12 08:27:05;;;;;;;14.50;6.43;;;15.80;99.90;;;;;;4953442;28;20183;-67
2023/10/12 08:32:12;;;;;;;27.07;12.97;;;15.90;99.90;;;;;;4963624;28;20237;-71
2023/10/12 08:37:17;;;;;;;150.83;25.00;;;16.00;99.90;;;;;;4953446;28;20197;-71
2023/10/12 08:39:52;;;;;;;35.40;9.00;;;15.90;99.90;;;;;;4961170;28;20206;-71
2023/10/12 08:45:07;;;;;;;102.60;13.63;;;15.90;99.90;;;;;;4971304;28;20305;-73
2023/10/12 08:52:30;;;;;;;25.83;8.70;;;15.80;99.90;;;;;;4948795;29;20575;-73
2023/10/12 08:55:12;;;;;;;21.07;7.50;;;15.90;99.90;;;;;;4960890;28;20189;-71
2023/10/12 08:57:55;;;;;;;19.60;6.90;;;15.90;99.90;;;;;;4961001;28;20178;-71
2023/10/12 09:03:00;;;;;;;18.20;6.67;;;16.00;99.90;;;;;;4955629;28;20756;-72
2023/10/12 09:05:33;;;;;;;23.90;9.80;;;16.00;99.90;;;;;;4964380;28;20237;-72
2023/10/12 09:13:36;;;;;;;38.47;16.43;;;16.00;99.90;;;;;;4961500;28;20660;-71
2023/10/12 09:16:09;;;;;;;21.87;9.90;;;16.00;99.90;;;;;;4952936;28;20290;-71
2023/10/12 09:18:46;;;;;;;17.80;7.37;;;16.00;99.90;;;;;;4951323;28;20187;-72
2023/10/12 09:23:48;;;;;;;29.30;7.47;;;16.00;99.90;;;;;;5038793;28;20191;-72
2023/10/12 09:36:37;;;;;;;18.67;6.20;;;16.10;99.90;;;;;;5031579;28;20294;-72
2023/10/12 09:39:03;;;;;;;39.10;8.60;;;16.10;99.90;;;;;;5026841;28;20180;-71
2023/10/12 09:41:33;;;;;;;25.50;6.97;;;16.30;99.90;;;;;;5041735;28;20260;-72
2023/10/12 09:44:04;;;;;;;35.40;8.37;;;16.50;99.90;;;;;;5038459;28;20212;-73
2023/10/12 09:46:32;;;;;;;24.10;10.30;;;16.60;99.90;;;;;;5039974;28;20180;-73
2023/10/12 09:49:06;;;;;;;25.33;10.80;;;16.80;99.90;;;;;;5034793;28;20237;-73
2023/10/12 09:51:50;;;;;;;16.13;7.17;;;17.00;99.90;;;;;;5049171;28;20254;-73
2023/10/12 09:54:27;;;;;;;20.07;7.13;;;17.10;99.90;;;;;;5034932;28;20183;-73
2023/10/12 09:57:04;;;;;;;14.80;6.17;;;17.30;99.90;;;;;;5034657;28;20176;-73
2023/10/12 09:59:31;;;;;;;15.40;6.00;;;17.30;99.90;;;;;;5033453;28;20229;-73
2023/10/12 10:02:05;;;;;;;17.13;7.53;;;17.30;99.90;;;;;;5035200;28;20266;-73
2023/10/12 10:04:34;;;;;;;15.73;7.20;;;17.10;99.90;;;;;;5026335;28;20199;-72
2023/10/12 10:07:17;;;;;;;15.27;7.00;;;17.10;99.90;;;;;;5044358;28;20187;-72
2023/10/12 10:09:49;;;;;;;13.70;7.13;;;17.10;99.90;;;;;;5037703;28;20227;-71
2023/10/12 10:12:20;;;;;;;15.03;7.20;;;17.10;99.90;;;;;;5034383;28;20218;-73
2023/10/12 10:14:52;;;;;;;17.63;6.70;;;17.00;99.90;;;;;;5034299;28;20188;-74
2023/10/12 10:17:36;;;;;;;16.23;7.23;;;17.00;99.90;;;;;;5031432;28;20633;-74
2023/10/12 10:22:57;;;;;;;16.40;6.33;;;17.10;99.90;;;;;;5037384;28;20187;-72
2023/10/12 10:25:42;;;;;;;16.03;6.10;;;17.20;99.90;;;;;;5031932;28;20259;-73
2023/10/12 10:28:13;;;;;;;28.47;7.80;;;17.20;99.90;;;;;;5033757;28;20175;-73
2023/10/12 10:30:41;;;;;;;14.03;6.23;;;17.40;99.90;;;;;;5022074;28;20579;-72
2023/10/12 10:33:20;;;;;;;27.40;9.03;;;17.40;99.90;;;;;;5029062;28;20567;-73
2023/10/12 10:36:01;;;;;;;43.17;8.13;;;17.40;99.90;;;;;;5012638;28;20741;-72
2023/10/12 10:38:32;;;;;;;22.70;7.17;;;17.60;99.90;;;;;;5019099;28;20187;-74
2023/10/12 10:41:05;;;;;;;16.53;6.40;;;17.60;99.90;;;;;;5013197;28;20602;-72
2023/10/12 10:43:35;;;;;;;23.10;7.90;;;17.70;99.90;;;;;;5019571;28;20215;-71
2023/10/12 10:46:05;;;;;;;14.57;6.07;;;17.70;99.90;;;;;;5013064;28;20181;-72
2023/10/12 10:48:33;;;;;;;13.43;5.70;;;17.70;99.90;;;;;;5012558;28;20490;-73
2023/10/12 10:51:02;;;;;;;15.50;6.43;;;17.90;99.90;;;;;;5014503;28;20660;-72
2023/10/12 10:53:31;;;;;;;16.77;6.33;;;18.00;99.90;;;;;;5024531;28;20194;-73
2023/10/12 10:56:00;;;;;;;14.57;6.13;;;18.10;99.90;;;;;;5013430;28;20275;-73
2023/10/12 10:58:25;;;;;;;14.50;5.57;;;18.30;99.90;;;;;;5026716;28;20184;-72
2023/10/12 11:00:56;;;;;;;17.60;6.27;;;18.30;99.90;;;;;;5021828;28;20224;-70
2023/10/12 11:03:22;;;;;;;15.80;6.30;;;18.30;99.90;;;;;;5012138;28;20220;-73
2023/10/12 11:05:48;;;;;;;13.37;5.40;;;18.20;99.90;;;;;;5013120;28;20185;-70
2023/10/12 11:08:26;;;;;;;471.33;44.30;;;18.40;99.90;;;;;;5019084;28;20241;-70
2023/10/12 11:13:38;;;;;;;29.13;7.13;;;18.40;99.90;;;;;;5027772;28;20191;-72
2023/10/12 11:16:38;;;;;;;24.53;6.07;;;18.50;99.90;;;;;;5015364;28;20176;-72
2023/10/12 11:18:57;;;;;;;12.27;5.17;;;18.70;99.90;;;;;;5020241;28;20207;-73
2023/10/12 11:21:27;;;;;;;26.20;6.10;;;18.70;99.90;;;;;;5023218;28;20200;-73
2023/10/12 11:24:01;;;;;;;13.97;6.10;;;18.80;99.90;;;;;;5030058;28;20191;-74
2023/10/12 11:26:27;;;;;;;14.97;5.47;;;18.80;99.90;;;;;;5011849;28;20189;-74
2023/10/12 11:29:06;;;;;;;19.03;6.00;;;18.80;99.90;;;;;;5019812;28;20271;-73
2023/10/12 11:31:33;;;;;;;10.63;5.03;;;18.80;99.90;;;;;;5026633;28;20207;-73
2023/10/12 11:34:06;;;;;;;14.87;6.63;;;18.70;99.90;;;;;;5019346;28;20184;-71
2023/10/12 11:36:33;;;;;;;718.97;71.53;;;18.70;99.90;;;;;;5011557;28;20267;-70
2023/10/12 11:39:04;;;;;;;21.83;7.30;;;18.70;99.90;;;;;;5013741;28;20184;-71
2023/10/12 11:41:30;;;;;;;14.27;5.17;;;18.60;99.90;;;;;;5016140;28;20197;-72
2023/10/12 11:44:05;;;;;;;31.47;10.77;;;18.70;99.90;;;;;;5020607;28;20249;-71
2023/10/12 11:46:41;;;;;;;36.97;16.87;;;18.80;99.90;;;;;;5023064;28;20282;-70
2023/10/12 11:49:10;;;;;;;31.10;8.93;;;18.60;99.90;;;;;;5042709;28;20179;-70
2023/10/12 11:51:50;;;;;;;31.70;8.87;;;18.60;99.90;;;;;;5011023;28;20683;-71
2023/10/12 11:54:19;;;;;;;21.63;6.37;;;18.60;99.90;;;;;;5016046;28;20194;-69
2023/10/12 11:56:46;;;;;;;1666.17;201.43;;;18.70;99.90;;;;;;5014048;28;20189;-72
2023/10/12 11:59:19;;;;;;;96.60;14.83;;;18.60;99.90;;;;;;5015138;28;20585;-71
2023/10/12 12:01:45;;;;;;;36.63;7.17;;;18.60;99.90;;;;;;5030551;28;20690;-71
2023/10/12 12:04:23;;;;;;;18.80;5.60;;;18.70;99.90;;;;;;5018775;28;20231;-71
2023/10/12 12:06:50;;;;;;;55.20;7.87;;;19.00;99.90;;;;;;5019012;28;20187;-71
2023/10/12 12:09:17;;;;;;;13.47;4.77;;;19.30;99.90;;;;;;5015964;28;20184;-73
2023/10/12 12:11:43;;;;;;;13.53;5.00;;;19.60;99.90;;;;;;5013855;28;20216;-70
2023/10/12 12:14:08;;;;;;;10.43;4.53;;;19.80;99.90;;;;;;5022511;28;20179;-71
2023/10/12 12:16:38;;;;;;;14.80;4.60;;;19.90;99.90;;;;;;5022066;28;20508;-74
2023/10/12 12:19:04;;;;;;;178.65;23.17;;;19.90;99.90;;;;;;5017212;28;20426;-72
2023/10/12 12:21:31;;;;;;;11.83;4.70;;;19.90;99.90;;;;;;5025130;28;20224;-73
2023/10/12 12:24:01;;;;;;;19.03;4.90;;;20.00;99.90;;;;;;5022127;28;20172;-73
2023/10/12 12:26:33;;;;;;;10.87;4.53;;;20.10;99.90;;;;;;5022343;28;20717;-70
2023/10/12 12:29:03;;;;;;;11.57;4.63;;;20.20;99.90;;;;;;5028087;28;20194;-71
2023/10/12 12:31:32;;;;;;;26.80;9.90;;;20.20;99.90;;;;;;5010224;28;20386;-71
2023/10/12 12:33:58;;;;;;;34.13;11.87;;;20.30;99.90;;;;;;5010449;28;20701;-72
2023/10/12 12:36:24;;;;;;;12.03;4.60;;;20.40;99.90;;;;;;5011165;28;20199;-74
2023/10/12 12:41:25;;;;;;;12.00;4.53;;;20.50;99.90;;;;;;5010136;28;20721;-74
2023/10/12 12:43:51;;;;;;;13.03;4.37;;;20.60;99.90;;;;;;5019996;28;20189;-74
2023/10/12 12:46:18;;;;;;;12.97;4.70;;;20.80;99.90;;;;;;5022011;28;20195;-73
2023/10/12 12:48:49;;;;;;;22.60;4.73;;;20.60;99.90;;;;;;5021773;28;20246;-73
2023/10/12 12:51:15;;;;;;;25.70;4.93;;;20.60;99.90;;;;;;5025683;28;20208;-73
2023/10/12 12:53:46;;;;;;;17.53;4.70;;;20.60;99.90;;;;;;5010224;28;20207;-72
2023/10/12 12:56:14;;;;;;;16.57;5.33;;;20.60;99.90;;;;;;5010515;28;20184;-71
2023/10/12 12:58:46;;;;;;;17.40;5.47;;;20.30;99.90;;;;;;5018370;28;20190;-71
2023/10/12 13:01:12;;;;;;;13.67;4.50;;;20.20;99.90;;;;;;5013655;28;20258;-71
2023/10/12 13:03:38;;;;;;;26.53;11.20;;;20.10;99.90;;;;;;5029817;28;20192;-70
2023/10/12 13:06:07;;;;;;;11.30;4.40;;;20.10;99.90;;;;;;5010557;28;20272;-70
2023/10/12 13:08:36;;;;;;;21.93;5.83;;;20.00;99.90;;;;;;5010161;28;20204;-72
2023/10/12 13:11:04;;;;;;;11.40;4.53;;;20.00;99.90;;;;;;5012394;28;20273;-73
2023/10/12 13:13:39;;;;;;;17.60;5.37;;;20.20;99.90;;;;;;5021811;28;20184;-72
2023/10/12 13:16:05;;;;;;;23.03;4.60;;;20.20;99.90;;;;;;5021463;28;20183;-73
2023/10/12 13:18:32;;;;;;;14.17;5.20;;;20.30;99.90;;;;;;5029773;28;20798;-73
2023/10/12 13:20:59;;;;;;;12.03;4.27;;;20.20;99.90;;;;;;5018571;28;20226;-72
2023/10/12 13:23:25;;;;;;;10.73;4.70;;;20.10;99.90;;;;;;5008760;28;20554;-73
2023/10/12 13:25:51;;;;;;;12.00;5.17;;;20.10;99.90;;;;;;5018029;28;20256;-73
2023/10/12 13:28:17;;;;;;;12.23;4.70;;;20.10;99.90;;;;;;5009813;28;20620;-73
2023/10/12 13:30:43;;;;;;;14.63;4.70;;;20.10;99.90;;;;;;5025696;28;20204;-71
2023/10/12 13:33:11;;;;;;;22.57;5.47;;;20.00;99.90;;;;;;5017853;28;20196;-72
2023/10/12 13:38:09;;;;;;;15.03;4.57;;;19.70;99.90;;;;;;5010149;28;20187;-74
2023/10/12 13:40:38;;;;;;;12.97;4.57;;;19.60;99.90;;;;;;5016607;28;20211;-73
2023/10/12 13:43:26;;;;;;;12.47;4.97;;;19.70;99.90;;;;;;5021266;28;20650;-70
2023/10/12 13:45:55;;;;;;;16.53;4.70;;;19.70;99.90;;;;;;5019957;28;20222;-73
2023/10/12 13:48:24;;;;;;;22.40;5.50;;;19.70;99.90;;;;;;5014912;28;20184;-73
2023/10/12 13:51:04;;;;;;;15.60;5.60;;;19.60;99.90;;;;;;5020779;28;20211;-72
2023/10/12 13:53:36;;;;;;;12.23;4.40;;;19.50;99.90;;;;;;5029487;28;20187;-72
2023/10/12 13:56:09;;;;;;;12.53;5.10;;;19.40;99.90;;;;;;5020732;28;20574;-71
2023/10/12 13:58:38;;;;;;;15.07;5.33;;;19.40;99.90;;;;;;5021288;28;20677;-73
2023/10/12 14:01:13;;;;;;;29.80;5.40;;;19.30;99.90;;;;;;5012334;28;20682;-72
2023/10/12 14:03:41;;;;;;;14.93;4.83;;;19.20;99.90;;;;;;5030734;28;20183;-71
2023/10/12 14:06:06;;;;;;;17.17;5.10;;;19.00;99.90;;;;;;5021221;28;20176;-72
2023/10/12 14:08:35;;;;;;;13.27;4.60;;;18.90;99.90;;;;;;5041121;28;20236;-70
2023/10/12 14:11:06;;;;;;;9.97;4.70;;;18.80;99.90;;;;;;5025893;28;20671;-71
2023/10/12 14:13:31;;;;;;;14.00;4.63;;;18.60;99.90;;;;;;5032976;28;20407;-73
2023/10/12 14:15:57;;;;;;;13.97;4.97;;;18.60;99.90;;;;;;5021472;28;20660;-72
2023/10/12 14:18:23;;;;;;;13.07;5.10;;;18.50;99.90;;;;;;5017074;28;20195;-73
2023/10/12 14:20:51;;;;;;;19.73;5.00;;;18.40;99.90;;;;;;5014182;28;20212;-70
2023/10/12 14:23:17;;;;;;;15.00;5.40;;;18.40;99.90;;;;;;5022972;28;20279;-71
2023/10/12 14:25:51;;;;;;;15.70;5.30;;;18.30;99.90;;;;;;5023233;28;20548;-70
2023/10/12 14:28:17;;;;;;;13.30;5.13;;;18.20;99.90;;;;;;5011451;28;20250;-70
2023/10/12 14:30:46;;;;;;;13.52;5.63;;;18.20;99.90;;;;;;5010816;28;20482;-69
2023/10/12 14:33:15;;;;;;;16.30;5.80;;;18.20;99.90;;;;;;5030533;28;20424;-71
2023/10/12 14:35:41;;;;;;;11.53;4.53;;;18.10;99.90;;;;;;5016491;28;20177;-70
2023/10/12 14:38:11;;;;;;;12.17;5.10;;;18.10;99.90;;;;;;5020819;28;20195;-70
2023/10/12 14:40:40;;;;;;;15.17;5.37;;;18.00;99.90;;;;;;5020437;28;20636;-70
2023/10/12 14:43:10;;;;;;;12.10;5.40;;;17.90;99.90;;;;;;5020554;28;20172;-71
2023/10/12 14:45:38;;;;;;;17.80;6.60;;;17.90;99.90;;;;;;5012596;28;20597;-70
2023/10/12 14:48:10;;;;;;;14.80;5.67;;;17.80;99.90;;;;;;5020494;28;20549;-71
2023/10/12 14:50:46;;;;;;;18.10;8.00;;;17.80;99.90;;;;;;5019386;28;20212;-72
2023/10/12 14:53:21;;;;;;;19.40;7.60;;;17.80;99.90;;;;;;5028451;28;20527;-72
2023/10/12 14:55:53;;;;;;;16.50;5.47;;;17.70;99.90;;;;;;5028967;28;20713;-71